Leconfield, United Kingdom
Current Conditions -  °F | °C
As of 7:50 AM on Friday 31 Oct 2014 (Local Time) from EGXV Reporting Station
Haze Haze  
Wind Chill: 57°   Ceiling: Unl
Heat Index: 57°   Visibility: 2mi
Dew Point: 57°   Wind: 6mph
Humidity: 100%   Direction: 160°SSE
Pressure: 29.94"   Gusts: NA
Location:  53.88°N, 0.46°W
Report Text: EGXV 310750Z AUTO 16005KT 3200 BR SCT005/// 14/14 Q1014
Loading
Personal Weather Stations






























Interactive Weather Map
Tropical Storm Tracking
New forecast layout! Learn more

10-Day Weather Forecast

Advertisements
Track Severe Weather on mobile